Time;durP1;ratioP1;P1;durP2;ratioP2;P2;SDS_P1;SDS_P2;PMS_P1;PMS_P2;Temp;Humidity;BMP_temperature;BMP_pressure;BME280_temperature;BME280_humidity;BME280_pressure;Samples;Min_cycle;Max_cycle;Signal;HPM_P1;HPM_P2
2023/02/07 00:00:30;;;;;;;22.43;15.90;;;;;;;-7.96;100.00;99024.63;5055814;28;21461;-64
2023/02/07 00:02:57;;;;;;;23.90;16.10;;;;;;;-8.00;100.00;99022.13;5072921;28;20440;-66
2023/02/07 00:05:25;;;;;;;27.20;19.17;;;;;;;-7.89;100.00;99037.41;5031665;28;21678;-64
2023/02/07 00:07:52;;;;;;;17.07;15.27;;;;;;;-7.78;100.00;99046.69;5055596;28;20467;-66
2023/02/07 00:10:20;;;;;;;17.10;15.30;;;;;;;-7.70;100.00;99032.00;5060011;28;20468;-64
2023/02/07 00:12:49;;;;;;;15.47;13.93;;;;;;;-7.68;100.00;99053.41;5061719;28;20553;-66
2023/02/07 00:15:17;;;;;;;18.10;14.43;;;;;;;-7.73;100.00;99043.16;5061019;28;20467;-65
2023/02/07 00:17:44;;;;;;;18.43;16.47;;;;;;;-7.79;100.00;99053.56;5065656;28;20760;-66
2023/02/07 00:20:12;;;;;;;20.73;15.20;;;;;;;-7.92;100.00;99086.34;5022649;28;20477;-64
2023/02/07 00:22:40;;;;;;;15.90;13.97;;;;;;;-8.07;100.00;99082.25;5045464;28;20539;-65
2023/02/07 00:25:07;;;;;;;13.93;12.57;;;;;;;-8.20;100.00;99047.28;5067097;28;20514;-66
2023/02/07 00:27:35;;;;;;;17.27;14.33;;;;;;;-8.25;100.00;99055.06;5048824;28;20931;-66
2023/02/07 00:30:05;;;;;;;14.10;11.97;;;;;;;-8.26;100.00;99039.66;5073929;28;20874;-67
2023/02/07 00:32:34;;;;;;;15.83;13.57;;;;;;;-8.29;100.00;99061.13;5067222;28;20538;-67
2023/02/07 00:35:02;;;;;;;14.50;12.93;;;;;;;-8.38;100.00;99025.22;5070825;28;20444;-67
2023/02/07 00:37:30;;;;;;;14.90;13.37;;;;;;;-8.39;100.00;99051.81;5003510;28;20460;-65
2023/02/07 00:39:57;;;;;;;17.03;14.23;;;;;;;-8.32;100.00;99053.44;5069854;28;20700;-66
2023/02/07 00:42:25;;;;;;;17.40;14.50;;;;;;;-8.21;100.00;99066.16;5048082;28;20555;-64
2023/02/07 00:44:52;;;;;;;14.37;12.90;;;;;;;-8.20;100.00;99066.13;5072223;28;20890;-64
2023/02/07 00:47:21;;;;;;;15.87;13.90;;;;;;;-8.25;100.00;99021.63;5062553;28;20568;-64
2023/02/07 00:49:49;;;;;;;20.00;15.13;;;;;;;-8.23;100.00;99032.72;5068152;28;20748;-67
2023/02/07 00:52:17;;;;;;;17.13;13.90;;;;;;;-8.19;100.00;99008.66;5022922;28;20479;-64
2023/02/07 00:54:44;;;;;;;18.67;14.90;;;;;;;-8.16;100.00;99024.06;5047076;28;20990;-67
2023/02/07 00:57:12;;;;;;;17.07;15.03;;;;;;;-8.12;100.00;99013.75;5047076;28;20457;-65
2023/02/07 00:59:39;;;;;;;19.77;15.20;;;;;;;-8.12;100.00;99022.31;5063339;28;21148;-66
2023/02/07 01:02:07;;;;;;;20.67;16.23;;;;;;;-8.09;100.00;99034.28;5063450;28;20480;-64
2023/02/07 01:04:36;;;;;;;18.20;15.37;;;;;;;-8.11;100.00;99036.03;5071800;28;20451;-65
2023/02/07 01:07:03;;;;;;;18.00;16.00;;;;;;;-8.11;100.00;99034.28;5021752;28;20466;-66
2023/02/07 01:09:31;;;;;;;19.70;16.77;;;;;;;-8.10;100.00;99035.16;5055211;28;20455;-66
2023/02/07 01:11:59;;;;;;;20.60;18.40;;;;;;;-8.07;100.00;99046.25;5067946;28;20759;-64
2023/02/07 01:14:26;;;;;;;20.87;16.50;;;;;;;-8.04;100.00;99053.91;5051828;28;20962;-64
2023/02/07 01:16:54;;;;;;;17.00;15.30;;;;;;;-8.05;100.00;99051.38;5060755;28;20971;-64
2023/02/07 01:19:22;;;;;;;16.50;14.70;;;;;;;-8.09;100.00;99054.88;5064749;28;20457;-64
2023/02/07 01:21:51;;;;;;;17.77;15.87;;;;;;;-8.10;100.00;99056.56;5018744;28;20496;-65
2023/02/07 01:24:19;;;;;;;20.17;15.27;;;;;;;-8.12;100.00;99057.47;5052693;28;20501;-64
2023/02/07 01:26:46;;;;;;;17.37;14.67;;;;;;;-8.17;100.00;99053.22;5063951;28;20573;-66
2023/02/07 01:29:15;;;;;;;18.03;14.97;;;;;;;-8.29;100.00;99046.53;5049363;28;20784;-64
2023/02/07 01:31:42;;;;;;;16.93;14.20;;;;;;;-8.29;100.00;99064.56;5068151;28;20581;-65
2023/02/07 01:34:12;;;;;;;15.90;13.97;;;;;;;-8.32;100.00;99071.44;5063393;28;20543;-64
2023/02/07 01:36:40;;;;;;;18.33;14.50;;;;;;;-8.52;100.00;99071.72;5063553;28;20589;-67
2023/02/07 01:39:09;;;;;;;15.13;12.77;;;;;;;-8.59;100.00;99076.06;5023323;28;20455;-66
2023/02/07 01:41:36;;;;;;;21.07;16.07;;;;;;;-8.70;100.00;99065.06;5050245;28;20782;-66
2023/02/07 01:44:06;;;;;;;15.93;14.23;;;;;;;-8.74;100.00;99052.25;5048950;28;20795;-64
2023/02/07 01:46:35;;;;;;;15.63;13.90;;;;;;;-8.73;100.00;99050.50;5064498;28;20478;-65
2023/02/07 01:49:14;;;;;;;16.20;14.50;;;;;;;-8.72;100.00;99040.22;5064805;28;20488;-67
2023/02/07 01:51:45;;;;;;;16.83;13.40;;;;;;;-8.59;100.00;99029.78;5067918;28;20463;-67
2023/02/07 01:54:16;;;;;;;16.03;14.33;;;;;;;-8.56;100.00;99029.75;5022083;28;20464;-64
2023/02/07 01:56:48;;;;;;;19.43;16.43;;;;;;;-8.55;100.00;99033.19;5056061;28;20603;-69
2023/02/07 01:59:15;;;;;;;16.87;14.97;;;;;;;-8.53;100.00;99034.84;5045853;28;21011;-63
2023/02/07 02:01:43;;;;;;;18.70;15.37;;;;;;;-8.46;100.00;99049.34;5055574;28;20714;-64
2023/02/07 02:04:11;;;;;;;20.23;15.40;;;;;;;-8.32;100.00;99056.88;5060904;28;21126;-64
2023/02/07 02:06:40;;;;;;;18.33;16.10;;;;;;;-8.29;100.00;99050.81;5055971;28;20563;-66
2023/02/07 02:09:10;;;;;;;18.03;15.93;;;;;;;-8.19;100.00;99059.28;5015996;28;20895;-66
2023/02/07 02:11:53;;;;;;;21.03;17.30;;;;;;;-8.17;100.00;99071.22;5043852;28;20495;-65
2023/02/07 02:14:32;;;;;;;16.63;14.90;;;;;;;-8.11;100.00;99062.59;5041947;28;20456;-64
2023/02/07 02:17:06;;;;;;;19.63;16.90;;;;;;;-8.05;100.00;99066.81;5066676;28;20451;-66
2023/02/07 02:20:18;;;;;;;19.77;16.50;;;;;;;-8.12;100.00;99052.34;5065435;28;20456;-65
2023/02/07 02:23:07;;;;;;;20.73;17.10;;;;;;;-8.04;100.00;99040.22;5058816;28;20840;-64
2023/02/07 02:25:49;;;;;;;17.93;16.03;;;;;;;-8.08;100.00;99041.13;5025367;28;20445;-66
2023/02/07 02:28:43;;;;;;;19.90;15.83;;;;;;;-8.12;100.00;99039.47;5067108;28;20444;-66
2023/02/07 02:31:34;;;;;;;20.17;17.57;;;;;;;-8.22;100.00;99031.03;5043870;28;21042;-65
2023/02/07 02:34:07;;;;;;;21.77;16.83;;;;;;;-8.27;100.00;99025.94;5058967;28;20810;-65
2023/02/07 02:36:41;;;;;;;22.57;19.13;;;;;;;-8.19;100.00;99024.09;5062674;28;20614;-65
2023/02/07 02:39:13;;;;;;;18.50;16.57;;;;;;;-8.16;100.00;99024.06;5062843;28;20531;-65
2023/02/07 02:41:47;;;;;;;22.70;18.27;;;;;;;-8.11;100.00;99018.03;5018788;28;20476;-64
2023/02/07 02:44:18;;;;;;;22.63;18.00;;;;;;;-8.11;100.00;99020.59;5063260;28;20451;-64
2023/02/07 02:46:47;;;;;;;22.13;17.77;;;;;;;-8.17;100.00;99027.50;5044437;28;20452;-64
2023/02/07 02:49:18;;;;;;;24.20;18.07;;;;;;;-8.14;100.00;99029.19;5069133;28;20959;-65
2023/02/07 02:51:49;;;;;;;18.97;16.97;;;;;;;-8.14;100.00;99019.78;5061140;28;20471;-64
2023/02/07 02:54:28;;;;;;;19.40;17.00;;;;;;;-8.22;100.00;99016.44;5073069;28;20442;-65
2023/02/07 02:57:14;;;;;;;19.43;17.27;;;;;;;-8.19;100.00;99026.69;5013355;28;20453;-66
2023/02/07 02:59:55;;;;;;;21.87;17.80;;;;;;;-8.15;100.00;99023.19;5046851;28;20470;-64
2023/02/07 03:02:28;;;;;;;20.87;17.40;;;;;;;-8.11;100.00;99020.59;5048859;28;20836;-63
2023/02/07 03:05:07;;;;;;;21.03;16.87;;;;;;;-8.10;100.00;99012.00;5060060;28;20452;-65
2023/02/07 03:07:47;;;;;;;22.07;16.13;;;;;;;-8.18;100.00;99014.69;5063012;28;21309;-67
2023/02/07 03:10:22;;;;;;;19.10;16.17;;;;;;;-8.23;100.00;99017.31;5069631;28;20443;-66
2023/02/07 03:12:55;;;;;;;19.10;16.03;;;;;;;-8.29;100.00;99012.25;5004187;28;20468;-66
2023/02/07 03:15:31;;;;;;;22.20;17.33;;;;;;;-8.25;100.00;99006.19;5063379;28;20475;-65
2023/02/07 03:18:03;;;;;;;19.80;16.77;;;;;;;-8.22;100.00;98998.44;5040311;28;20561;-65
2023/02/07 03:20:34;;;;;;;22.40;16.27;;;;;;;-8.14;100.00;98991.47;5071492;28;20658;-66
2023/02/07 03:23:02;;;;;;;20.97;16.93;;;;;;;-8.12;100.00;98996.56;5071897;28;20729;-64
2023/02/07 03:25:31;;;;;;;21.50;17.50;;;;;;;-8.05;100.00;98997.34;5064255;28;20453;-66
2023/02/07 03:27:58;;;;;;;20.43;16.13;;;;;;;-8.06;100.00;98983.63;5021165;28;20448;-64
2023/02/07 03:30:28;;;;;;;22.43;17.00;;;;;;;-8.06;100.00;98990.50;5047550;28;20618;-66
2023/02/07 03:32:59;;;;;;;20.93;16.53;;;;;;;-8.06;100.00;98998.22;5045755;28;20460;-66
2023/02/07 03:35:30;;;;;;;22.33;16.93;;;;;;;-8.13;100.00;99002.59;5066042;28;20460;-66
2023/02/07 03:38:01;;;;;;;20.13;16.93;;;;;;;-8.15;100.00;98994.88;5068914;28;20478;-65
2023/02/07 03:40:37;;;;;;;20.03;17.67;;;;;;;-8.16;100.00;98998.34;5069328;28;20471;-66
2023/02/07 03:43:07;;;;;;;19.70;17.07;;;;;;;-8.17;100.00;98995.81;5023928;28;20743;-67
2023/02/07 03:45:35;;;;;;;21.97;17.70;;;;;;;-8.19;100.00;98993.22;5049502;28;20468;-66
2023/02/07 03:48:03;;;;;;;18.00;15.77;;;;;;;-8.24;100.00;98989.88;5048142;28;21045;-64
2023/02/07 03:50:31;;;;;;;17.07;15.23;;;;;;;-8.27;100.00;99000.22;5071937;28;20767;-67
2023/02/07 03:53:00;;;;;;;24.93;17.53;;;;;;;-8.34;100.00;99009.72;5046934;28;20454;-65
2023/02/07 03:55:27;;;;;;;20.03;16.00;;;;;;;-8.42;100.00;98998.69;5064410;28;20728;-66
2023/02/07 03:57:55;;;;;;;16.67;14.73;;;;;;;-8.40;100.00;98998.69;5028401;28;20443;-66
2023/02/07 04:00:23;;;;;;;18.37;16.50;;;;;;;-8.44;100.00;99001.31;5050814;28;20463;-64
2023/02/07 04:02:50;;;;;;;21.27;16.93;;;;;;;-8.44;100.00;99006.44;5065727;28;20863;-66
2023/02/07 04:05:19;;;;;;;17.60;15.80;;;;;;;-8.39;100.00;99008.09;5052514;28;20460;-64
2023/02/07 04:07:47;;;;;;;18.77;16.20;;;;;;;-8.46;100.00;99002.19;5067503;28;21148;-66
2023/02/07 04:10:16;;;;;;;19.53;16.60;;;;;;;-8.54;100.00;98997.16;5069663;28;20451;-64
2023/02/07 04:12:44;;;;;;;19.30;17.03;;;;;;;-8.66;100.00;98992.19;5044937;28;20459;-66
2023/02/07 04:15:12;;;;;;;19.63;17.53;;;;;;;-8.74;100.00;98993.16;5015224;28;20469;-64
2023/02/07 04:17:40;;;;;;;21.73;17.03;;;;;;;-8.70;100.00;99000.81;5060443;28;21102;-64
2023/02/07 04:20:08;;;;;;;21.77;17.10;;;;;;;-8.79;100.00;99007.78;5054178;28;20457;-64
2023/02/07 04:22:36;;;;;;;21.53;16.67;;;;;;;-8.92;100.00;98990.78;5045320;28;21242;-66
2023/02/07 04:25:04;;;;;;;21.70;17.87;;;;;;;-8.88;100.00;99019.00;5060415;28;20456;-66
2023/02/07 04:27:32;;;;;;;18.33;14.97;;;;;;;-8.95;100.00;99016.50;5059197;28;20439;-65
2023/02/07 04:30:00;;;;;;;19.57;16.73;;;;;;;-9.02;100.00;99018.31;5016895;28;20448;-63
2023/02/07 04:32:28;;;;;;;17.53;15.07;;;;;;;-9.03;100.00;99017.44;5044898;28;20531;-65
2023/02/07 04:34:55;;;;;;;18.63;15.80;;;;;;;-9.07;100.00;99015.78;5071783;28;20433;-65
2023/02/07 04:37:23;;;;;;;20.00;16.97;;;;;;;-9.22;100.00;99003.94;5045932;28;20577;-63
2023/02/07 04:39:50;;;;;;;19.03;15.97;;;;;;;-9.08;100.00;99021.78;5053152;28;20476;-66
2023/02/07 04:42:18;;;;;;;18.07;15.60;;;;;;;-9.08;100.00;99020.94;5069033;28;20781;-63
2023/02/07 04:44:47;;;;;;;21.53;17.10;;;;;;;-9.12;100.00;99024.38;5019282;28;20455;-62
2023/02/07 04:47:15;;;;;;;18.90;16.20;;;;;;;-9.17;100.00;99025.28;5039216;28;20904;-67
2023/02/07 04:49:42;;;;;;;20.60;16.20;;;;;;;-9.23;100.00;99016.81;5075065;28;20454;-65
2023/02/07 04:52:10;;;;;;;22.90;17.33;;;;;;;-9.09;100.00;99027.78;5045163;28;20592;-65
2023/02/07 04:54:37;;;;;;;19.27;17.17;;;;;;;-9.06;100.00;99025.19;5068592;28;21509;-65
2023/02/07 04:57:05;;;;;;;20.93;17.77;;;;;;;-9.07;100.00;99018.34;5064919;28;21257;-65
2023/02/07 04:59:32;;;;;;;21.03;16.63;;;;;;;-9.00;100.00;99016.56;5078515;28;20429;-65
2023/02/07 05:02:01;;;;;;;20.70;16.83;;;;;;;-9.02;100.00;99011.44;5009111;28;20480;-63
2023/02/07 05:04:29;;;;;;;21.80;16.90;;;;;;;-9.02;100.00;99006.31;5075439;28;20486;-65
2023/02/07 05:06:57;;;;;;;22.30;17.10;;;;;;;-8.98;100.00;98990.84;5042893;28;20460;-63
2023/02/07 05:09:24;;;;;;;22.20;16.40;;;;;;;-9.10;100.00;98995.25;5074399;28;20520;-66
2023/02/07 05:11:52;;;;;;;18.57;16.43;;;;;;;-9.09;100.00;98996.97;5066183;28;20467;-65
2023/02/07 05:14:19;;;;;;;22.23;16.83;;;;;;;-9.08;100.00;98996.09;5071404;28;20439;-63
2023/02/07 05:16:47;;;;;;;19.60;15.83;;;;;;;-9.12;100.00;98997.00;5025838;28;20452;-63
2023/02/07 05:19:16;;;;;;;19.17;16.40;;;;;;;-9.09;100.00;98996.97;5063498;28;20447;-64
2023/02/07 05:21:44;;;;;;;20.03;17.20;;;;;;;-9.12;100.00;99009.84;5066232;28;20487;-63
2023/02/07 05:24:11;;;;;;;19.97;16.33;;;;;;;-9.10;100.00;99008.09;5061441;28;20575;-62
2023/02/07 05:26:39;;;;;;;23.03;18.40;;;;;;;-9.17;100.00;99004.75;5075236;28;20436;-65
2023/02/07 05:29:07;;;;;;;20.03;15.40;;;;;;;-9.17;100.00;99009.88;5073012;28;20428;-66
2023/02/07 05:34:21;;;;;;;21.67;16.87;;;;;;;-9.26;100.00;99002.28;5050309;28;20521;-64
2023/02/07 05:36:48;;;;;;;18.37;16.50;;;;;;;-9.36;100.00;98998.09;5062332;28;21133;-63
2023/02/07 05:39:16;;;;;;;16.17;14.47;;;;;;;-9.30;100.00;99004.00;5055617;28;20572;-66
2023/02/07 05:41:44;;;;;;;21.73;16.83;;;;;;;-9.29;100.00;99004.88;5065696;28;20531;-64
2023/02/07 05:44:11;;;;;;;24.00;17.53;;;;;;;-9.48;100.00;99009.34;5070021;28;20475;-64
2023/02/07 05:46:39;;;;;;;21.80;17.20;;;;;;;-9.58;100.00;99010.28;5070936;28;22006;-66
2023/02/07 05:49:06;;;;;;;23.17;17.13;;;;;;;-9.65;100.00;99007.78;5015282;28;20436;-65
2023/02/07 05:51:35;;;;;;;22.27;16.70;;;;;;;-9.65;100.00;99012.91;5067166;28;20478;-66
2023/02/07 05:54:03;;;;;;;19.03;16.97;;;;;;;-9.69;100.00;99023.19;5053720;28;20439;-66
2023/02/07 05:56:30;;;;;;;18.73;16.40;;;;;;;-9.68;100.00;99028.31;5072855;28;20454;-66
2023/02/07 05:58:58;;;;;;;20.07;15.83;;;;;;;-9.75;100.00;99040.34;5068470;28;20965;-64
2023/02/07 06:01:26;;;;;;;18.33;16.10;;;;;;;-9.75;100.00;99055.75;5069998;28;20476;-65
2023/02/07 06:03:53;;;;;;;17.87;15.13;;;;;;;-9.68;100.00;99068.53;5023888;28;20471;-63
2023/02/07 06:06:21;;;;;;;22.50;17.70;;;;;;;-9.63;100.00;99075.34;5064232;28;20450;-63
2023/02/07 06:08:50;;;;;;;21.63;16.53;;;;;;;-9.54;100.00;99084.66;5053177;28;20447;-63
2023/02/07 06:11:17;;;;;;;21.53;17.90;;;;;;;-9.53;100.00;99091.50;5074396;28;20758;-67
2023/02/07 06:13:45;;;;;;;24.10;19.43;;;;;;;-9.53;100.00;99081.22;5042577;28;20854;-66
2023/02/07 06:16:12;;;;;;;21.80;17.73;;;;;;;-9.59;100.00;99083.84;5066274;28;20456;-63
2023/02/07 06:18:40;;;;;;;23.67;18.10;;;;;;;-9.70;100.00;99085.66;5022912;28;21859;-66
2023/02/07 06:21:08;;;;;;;19.77;17.17;;;;;;;-9.63;100.00;99095.88;5062139;28;20467;-63
2023/02/07 06:23:35;;;;;;;20.53;17.40;;;;;;;-9.68;100.00;99105.28;5050105;28;21367;-66
2023/02/07 06:26:04;;;;;;;20.37;18.20;;;;;;;-9.75;100.00;99094.22;5078364;28;20471;-66
2023/02/07 06:28:32;;;;;;;18.93;16.60;;;;;;;-9.77;100.00;99083.13;5066924;28;20809;-65
2023/02/07 06:31:00;;;;;;;21.50;17.33;;;;;;;-9.81;100.00;99081.44;5073535;28;20483;-66
2023/02/07 06:33:27;;;;;;;23.33;18.27;;;;;;;-9.89;100.00;99073.78;5066287;28;20770;-65
2023/02/07 06:35:55;;;;;;;24.93;18.40;;;;;;;-9.77;100.00;99084.81;5015666;28;20524;-67
2023/02/07 06:38:23;;;;;;;25.37;19.23;;;;;;;-9.88;100.00;99085.75;5065632;28;20457;-64
2023/02/07 06:40:50;;;;;;;20.93;18.43;;;;;;;-9.83;100.00;99084.88;5058556;28;20808;-67
2023/02/07 06:43:19;;;;;;;22.23;17.97;;;;;;;-9.88;100.00;99092.59;5068234;28;20480;-64
2023/02/07 06:45:47;;;;;;;20.53;18.20;;;;;;;-9.90;100.00;99089.19;5070558;28;20450;-66
2023/02/07 06:48:14;;;;;;;20.80;18.60;;;;;;;-9.90;100.00;99087.47;5064895;28;20430;-63
2023/02/07 06:50:42;;;;;;;24.17;18.10;;;;;;;-9.86;100.00;99092.59;5021314;28;21213;-65
2023/02/07 06:53:09;;;;;;;19.33;16.70;;;;;;;-9.83;100.00;99092.56;5052596;28;20947;-64
2023/02/07 06:55:39;;;;;;;26.80;19.67;;;;;;;-9.74;100.00;99102.75;5043640;28;20472;-67
2023/02/07 06:58:07;;;;;;;25.93;18.13;;;;;;;-9.75;100.00;99108.75;5053699;28;20456;-63
2023/02/07 07:00:36;;;;;;;21.53;17.27;;;;;;;-9.74;100.00;99113.03;5051593;28;20510;-63
2023/02/07 07:03:04;;;;;;;22.73;18.20;;;;;;;-9.68;100.00;99114.72;5054994;28;20436;-66
2023/02/07 07:05:32;;;;;;;24.90;18.23;;;;;;;-9.72;100.00;99121.56;5008017;28;21021;-63
2023/02/07 07:07:59;;;;;;;23.83;19.50;;;;;;;-9.61;100.00;99124.94;5043270;28;20467;-65
2023/02/07 07:10:27;;;;;;;20.37;17.90;;;;;;;-9.62;100.00;99122.38;5035093;28;20581;-65
2023/02/07 07:12:55;;;;;;;24.07;19.43;;;;;;;-9.60;100.00;99125.78;5061300;28;20995;-65
2023/02/07 07:15:22;;;;;;;22.47;19.10;;;;;;;-9.60;100.00;99131.78;5057166;28;21055;-63
2023/02/07 07:17:51;;;;;;;23.77;18.13;;;;;;;-9.55;100.00;99125.75;5060403;28;20927;-64
2023/02/07 07:20:19;;;;;;;24.63;19.13;;;;;;;-9.49;100.00;99118.84;5056593;28;20456;-60
2023/02/07 07:22:48;;;;;;;23.67;19.27;;;;;;;-9.39;100.00;99124.75;5004556;28;20456;-66
2023/02/07 07:25:15;;;;;;;24.23;19.23;;;;;;;-9.40;100.00;99133.31;5053959;28;20491;-63
2023/02/07 07:27:43;;;;;;;22.47;19.67;;;;;;;-9.45;100.00;99127.38;5049356;28;21794;-65
2023/02/07 07:30:11;;;;;;;21.63;19.33;;;;;;;-9.46;100.00;99134.25;5063443;28;20443;-63
2023/02/07 07:32:39;;;;;;;23.27;19.27;;;;;;;-9.37;100.00;99143.56;5052757;28;20615;-62
2023/02/07 07:35:08;;;;;;;24.87;20.10;;;;;;;-9.30;100.00;99145.22;5054486;28;20441;-62
2023/02/07 07:37:36;;;;;;;23.20;20.13;;;;;;;-9.26;100.00;99124.69;5000452;28;21105;-64
2023/02/07 07:40:04;;;;;;;25.07;20.30;;;;;;;-9.17;100.00;99152.84;5062430;28;20478;-64
2023/02/07 07:42:33;;;;;;;23.80;20.60;;;;;;;-9.09;100.00;99145.94;5039840;28;20659;-64
2023/02/07 07:45:00;;;;;;;30.40;21.17;;;;;;;-9.02;100.00;99147.59;5060503;28;20492;-65
2023/02/07 07:47:28;;;;;;;24.60;21.40;;;;;;;-9.06;100.00;99137.38;5055553;28;20771;-64
2023/02/07 07:49:55;;;;;;;23.37;19.03;;;;;;;-9.01;100.00;99144.16;5059681;28;20451;-65
2023/02/07 07:52:24;;;;;;;24.33;20.20;;;;;;;-8.98;100.00;99138.16;5006414;28;20477;-63
2023/02/07 07:54:52;;;;;;;25.07;21.07;;;;;;;-8.91;100.00;99138.91;5063738;28;20952;-65
2023/02/07 07:57:20;;;;;;;24.73;20.67;;;;;;;-8.78;100.00;99130.25;5047926;28;20480;-62
2023/02/07 07:59:47;;;;;;;26.40;21.83;;;;;;;-8.75;100.00;99142.19;5069547;28;20436;-63
2023/02/07 08:02:15;;;;;;;26.03;22.23;;;;;;;-8.68;100.00;99131.00;5063667;28;20478;-62
2023/02/07 08:04:43;;;;;;;46.10;31.40;;;;;;;-8.47;100.00;99126.47;5068194;28;20477;-64
2023/02/07 08:07:10;;;;;;;28.23;23.53;;;;;;;-8.36;100.00;99124.63;5064709;28;20447;-61
2023/02/07 08:09:39;;;;;;;29.10;23.47;;;;;;;-8.22;100.00;99121.88;5024316;28;20474;-62
2023/02/07 08:12:07;;;;;;;25.73;21.07;;;;;;;-8.12;100.00;99116.66;5073558;28;20824;-62
2023/02/07 08:14:34;;;;;;;28.37;23.10;;;;;;;-8.09;100.00;99117.44;5053767;28;20704;-65
2023/02/07 08:17:02;;;;;;;25.70;21.53;;;;;;;-7.97;100.00;99115.56;5065532;28;20452;-65
2023/02/07 08:19:29;;;;;;;25.00;22.07;;;;;;;-7.90;100.00;99101.78;5066644;28;20719;-62
2023/02/07 08:21:57;;;;;;;27.97;23.93;;;;;;;-7.76;100.00;99119.59;5070033;28;20684;-64
2023/02/07 08:24:27;;;;;;;31.33;23.70;;;;;;;-7.65;100.00;99122.88;5025026;28;20485;-62
2023/02/07 08:26:56;;;;;;;27.40;22.43;;;;;;;-7.61;100.00;99111.66;5066966;28;20479;-65
2023/02/07 08:29:23;;;;;;;26.77;23.23;;;;;;;-7.39;100.00;99108.72;5049461;28;20448;-61
2023/02/07 08:31:51;;;;;;;27.00;21.07;;;;;;;-7.26;100.00;99114.53;5067103;28;20468;-64
2023/02/07 08:34:22;;;;;;;25.73;22.67;;;;;;;-7.10;100.00;99120.31;5065099;28;20444;-61
2023/02/07 08:36:50;;;;;;;25.30;22.57;;;;;;;-7.03;100.00;99105.59;5067491;28;20464;-64
2023/02/07 08:39:17;;;;;;;25.37;22.13;;;;;;;-6.94;100.00;99096.88;5069291;28;20458;-63
2023/02/07 08:41:45;;;;;;;27.80;20.00;;;;;;;-6.93;100.00;99098.56;5025494;28;20468;-64
2023/02/07 08:44:14;;;;;;;25.93;22.37;;;;;;;-6.72;100.00;99100.72;5042675;28;20868;-62
2023/02/07 08:46:42;;;;;;;27.03;21.33;;;;;;;-6.53;100.00;99105.56;5069464;28;20697;-64
2023/02/07 08:49:10;;;;;;;25.40;21.87;;;;;;;-6.53;100.00;99102.97;5065555;28;20856;-61
2023/02/07 08:51:37;;;;;;;27.10;21.33;;;;;;;-6.54;100.00;99109.84;5060971;28;20504;-62
2023/02/07 08:54:05;;;;;;;25.63;20.67;;;;;;;-6.42;100.00;99108.78;5069919;28;20440;-65
2023/02/07 08:56:32;;;;;;;22.83;19.97;;;;;;;-6.36;100.00;99099.22;5021053;28;21110;-65
2023/02/07 08:59:00;;;;;;;22.43;20.03;;;;;;;-6.19;100.00;99098.88;5070589;28;20437;-62
2023/02/07 09:01:29;;;;;;;25.73;21.93;;;;;;;-6.03;100.00;99096.81;5044805;28;20480;-62
2023/02/07 09:03:57;;;;;;;26.40;22.00;;;;;;;-5.86;100.00;99097.28;5070800;28;21189;-64
2023/02/07 09:06:25;;;;;;;24.67;21.30;;;;;;;-5.85;100.00;99088.66;5064592;28;20444;-63
2023/02/07 09:08:53;;;;;;;24.23;21.07;;;;;;;-5.78;100.00;99091.94;5069642;28;20447;-65
2023/02/07 09:11:21;;;;;;;23.73;19.60;;;;;;;-5.68;100.00;99082.25;5031595;28;20476;-62
2023/02/07 09:13:48;;;;;;;23.07;20.67;;;;;;;-5.50;100.00;99083.56;5067490;28;20448;-65
2023/02/07 09:16:16;;;;;;;27.00;20.83;;;;;;;-5.29;100.00;99082.19;5043646;28;20457;-60
2023/02/07 09:18:45;;;;;;;26.33;22.00;;;;;;;-5.04;100.00;99091.94;5067628;28;20447;-64
2023/02/07 09:21:13;;;;;;;26.37;22.00;;;;;;;-4.67;100.00;99088.41;5067108;28;20455;-62
2023/02/07 09:23:40;;;;;;;26.80;21.30;;;;;;;-4.34;100.00;99084.91;5068177;28;20651;-65
2023/02/07 09:26:08;;;;;;;27.47;21.63;;;;;;;-4.46;100.00;99078.34;5065779;28;20480;-62
2023/02/07 09:28:36;;;;;;;27.27;23.07;;;;;;;-4.16;100.00;99077.53;5023122;28;20836;-63
2023/02/07 09:31:07;;;;;;;27.57;22.53;;;;;;;-3.98;100.00;99078.69;5043533;28;20494;-64
2023/02/07 09:33:35;;;;;;;25.00;21.90;;;;;;;-4.46;100.00;99069.72;5060865;28;20455;-64
2023/02/07 09:36:05;;;;;;;23.10;20.73;;;;;;;-4.60;100.00;99065.78;5069707;28;20778;-64
2023/02/07 09:38:32;;;;;;;24.10;19.73;;;;;;;-4.65;100.00;99071.09;5065389;28;20433;-64
2023/02/07 09:41:00;;;;;;;24.13;19.80;;;;;;;-4.42;100.00;99066.16;5062697;28;20304;-63
2023/02/07 09:43:37;;;;;;;22.53;20.20;;;;;;;-4.41;100.00;99070.44;5029153;28;20474;-61
2023/02/07 09:46:10;;;;;;;22.77;20.37;;;;;;;-4.38;100.00;99076.38;5044592;28;20487;-65
2023/02/07 09:48:44;;;;;;;22.43;20.17;;;;;;;-4.37;100.00;99070.31;5065315;28;20203;-62
2023/02/07 09:51:18;;;;;;;21.77;19.57;;;;;;;-4.36;100.00;99072.03;5068845;28;20468;-67
2023/02/07 09:53:53;;;;;;;22.83;20.63;;;;;;;-4.17;100.00;99079.25;5063716;28;20323;-63
2023/02/07 09:56:22;;;;;;;26.37;23.57;;;;;;;-4.32;100.00;99071.94;5064720;28;20438;-64
2023/02/07 09:58:53;;;;;;;25.47;21.73;;;;;;;-4.08;100.00;99078.13;5014529;28;20669;-64
2023/02/07 10:01:22;;;;;;;23.13;19.77;;;;;;;-3.87;100.00;99084.41;5047189;28;20759;-64
2023/02/07 10:03:59;;;;;;;23.53;21.13;;;;;;;-4.00;100.00;99080.47;5061278;28;20440;-64
2023/02/07 10:06:28;;;;;;;25.40;21.70;;;;;;;-3.76;100.00;99070.28;5065371;28;20818;-61
2023/02/07 10:08:58;;;;;;;25.23;21.43;;;;;;;-3.60;100.00;99073.25;5067008;28;20987;-64
2023/02/07 10:11:35;;;;;;;25.10;20.77;;;;;;;-3.79;100.00;99072.09;5070399;28;20232;-62
2023/02/07 10:14:14;;;;;;;23.00;20.23;;;;;;;-3.87;100.00;99070.59;5024144;28;21777;-64
2023/02/07 10:16:51;;;;;;;23.37;20.63;;;;;;;-3.71;100.00;99076.16;5040475;28;20221;-61
2023/02/07 10:19:30;;;;;;;25.40;21.57;;;;;;;-3.67;100.00;99062.22;5068399;28;20228;-64
2023/02/07 10:22:07;;;;;;;23.90;20.53;;;;;;;-3.72;100.00;99058.94;5061696;28;20440;-62
2023/02/07 10:24:56;;;;;;;23.40;19.67;;;;;;;-3.75;100.00;99051.25;5066055;28;20193;-61
2023/02/07 10:27:29;;;;;;;22.50;20.07;;;;;;;-3.66;100.00;99056.16;5067883;28;20198;-65
2023/02/07 10:30:04;;;;;;;23.00;20.00;;;;;;;-3.61;100.00;99043.06;5018949;28;20968;-61
2023/02/07 10:32:35;;;;;;;23.47;19.33;;;;;;;-3.56;100.00;99038.56;5045303;28;20208;-61
2023/02/07 10:35:04;;;;;;;22.70;20.07;;;;;;;-3.50;100.00;99034.03;5066574;28;20216;-61
2023/02/07 10:37:38;;;;;;;23.23;19.97;;;;;;;-3.26;100.00;99041.91;5066349;28;20198;-62
2023/02/07 10:40:12;;;;;;;21.77;18.87;;;;;;;-3.38;98.63;99044.91;5064980;28;20483;-64
2023/02/07 10:42:42;;;;;;;22.90;20.43;;;;;;;-3.29;99.52;99038.56;5064401;28;20700;-61
2023/02/07 10:45:13;;;;;;;22.03;18.97;;;;;;;-3.20;98.45;99036.53;5025299;28;20210;-61
2023/02/07 10:47:41;;;;;;;21.27;19.07;;;;;;;-3.24;98.07;99032.31;5049380;28;20201;-61
2023/02/07 10:50:13;;;;;;;22.30;18.43;;;;;;;-3.25;98.62;99033.22;5060462;28;20705;-64
2023/02/07 10:52:54;;;;;;;24.73;18.57;;;;;;;-3.06;97.64;99037.81;5064150;28;20344;-64
2023/02/07 10:55:36;;;;;;;20.17;18.17;;;;;;;-3.10;96.76;99033.63;5066271;28;20440;-64
2023/02/07 10:58:04;;;;;;;21.57;19.27;;;;;;;-3.00;98.11;99034.16;5064573;28;20206;-64
2023/02/07 11:00:48;;;;;;;21.23;18.57;;;;;;;-2.84;96.30;99032.72;5018373;28;21194;-63
2023/02/07 11:03:19;;;;;;;24.40;20.00;;;;;;;-2.82;95.59;99038.69;5067655;28;20202;-64
2023/02/07 11:05:56;;;;;;;24.50;19.70;;;;;;;-2.84;95.40;99037.03;5047101;28;20430;-62
2023/02/07 11:08:26;;;;;;;23.67;19.10;;;;;;;-2.84;94.14;99039.63;5069422;28;20697;-62
2023/02/07 11:10:55;;;;;;;22.20;19.67;;;;;;;-2.85;94.00;99037.94;5055606;28;20222;-59
2023/02/07 11:13:24;;;;;;;21.37;18.83;;;;;;;-2.81;94.16;99036.97;5066417;28;20202;-64
2023/02/07 11:15:57;;;;;;;22.27;18.80;;;;;;;-2.70;92.77;99033.97;5067946;28;20405;-64
2023/02/07 11:18:29;;;;;;;21.60;19.37;;;;;;;-2.62;93.28;99025.00;5022167;28;20722;-62
2023/02/07 11:20:57;;;;;;;20.23;17.43;;;;;;;-2.61;92.61;99023.28;5043646;28;20244;-62
2023/02/07 11:23:26;;;;;;;21.87;19.50;;;;;;;-2.54;91.37;99027.34;5060957;28;20237;-63